West Fort Dodge, Iowa
Current Conditions -  °F | °C
As of 9:15 AM on Thursday 18 Dec 2014 (Local Time) from KFOD Reporting Station
Overcast Overcast  
Wind Chill: 19°   Ceiling: 900
Heat Index: 19°   Visibility: 10mi
Dew Point: 16°   Wind: 0mph
Humidity: 86%   Direction: NA
Pressure: 30.28"   Gusts: NA
Location:  42.5075°N, 94.2531°W
Report Text: KFOD 181515Z AUTO 00000KT 10SM BKN009 OVC075 M07/M09 A3028 RMK AO1
Loading
Personal Weather Stations






























Interactive Weather Map New forecast layout! Learn more

10-Day Weather Forecast

Advertisements
Track Severe Weather on mobile